Delta Virtual Airport Information Service

Nadi International Airport

ICAO: NFFN Country: Fiji
Latitude: -17.7553 Longitude: 177.443
Latest Arrival : DAC804 (NSFA-NFFN) Latest Departure : ANZ6193 (B) (NFFN-NZAA)


WX CaptureLIVE
Data provided by noaa.gov | Fetched at 00:41:40

METAR : NFFN 060500Z 33009KT 9999 SCT030 SCT050 28/21 Q1013 NOSIG

TAF : NFFN 060308Z 0604/0624 33010KT 9999 FEW030 BECMG 0605/0607 14005KT PROB40 TEMPO 0618/0624 5000 SHRA BKN015


Runway Data for NFFN
Data provided by openaviationdata.com

Runway ID Mag Var Hdg Length Elevation Surface ILS Freq ILS Id ILS Slope
2 13 23° 10524 ft 59 ft Bituminous 109.9 INN 3
9 13 90° 7017 ft 59 ft Bituminous -- -- --
20 13 203° 10524 ft 59 ft Bituminous -- -- --
27 13 270° 7017 ft 59 ft Bituminous -- -- --

Nadi International Airport, Fiji
Use only for reference purposes



Not for navigational purposes.